Hauptseite
METAR-TAF:

METAR-TAF

Flughäfen :

United States Naval Academy

Annapolis, Maryland, Vereinigte Staaten

Breite: 38-59-29N, Länge: 076-29-00W, Höhe: 2 m

Beobachtung

Neuester Wetterbericht von vor 38 Minuten, um 21:10 UTC
Wind 6 kt aus Süd
Temperatur 9°C
Luftfeuchtigkeit 93%
Luftdruck 1013 hPa
Sichtweite: 9.7 km
Durchbrochene Bewölkung in der Höhe von 700 ft
Durchbrochene Bewölkung in der Höhe von 1800 ft
Geschlossene Wolkendecke in der Höhe von 4100 ft
Leichtregen, feuchter Dunst

METAR: KNAK 092110Z AUTO 19006KT 6SM -RA BR BKN007 BKN018 OVC041 09/08 A2990 RMK AO2 P0003 T00890078

Zeit: 16:48 (21:48 UTC)


TAF: fehlend

Wetterbeobachtungen und Prognosen von mehr als 4000 Flughäfen (METAR und TAF Bericht).

Die verfügbaren Stationen werden durch gelbe und rote Markierungen auf der Karte dargestellt.

Führen Sie die Maus auf sie, um den Namen der Station zu sehen.

Darauf klicken, um die Beobachtung von Wetterbeobachtungen und Prognosen zu sehen.

Um die Karte zu ändern : klicken Sie auf den grünen Tasten mit einem schwarzen Kreuz Zum Vergrößern, auf den grünen Button mit einem Gedankenstrich zu verkleinern, oder auf die grünen Pfeile für benachbarte Karten.


METAR-TAF: